DABB/AAE METAR and TAF weather

Enter ICAO airport designator
Station Type Date Time Source
DABB METAR 2022/06/30 12:30 UTC NOAA

DABB 301230Z 01012KT 9999 SCT040 SCT200 31/23 Q1009


Station Type Date Time Source
DABB Decoded METAR 2022/06/30 12:30 UTC NOAA

Annaba, Algeria (DABB) 36-50N 007-49E 4M
Jun 30, 2022 - 08:30 AM EDT / 2022.06.30 1230 UTC
Wind: from the N (010 degrees) at 14 MPH (12 KT):0
Visibility: greater than 7 mile(s):0
Sky conditions: partly cloudy
Temperature: 87 F (31 C)
Heat index: 93.9 F (34.4 C):1
Dew Point: 73 F (23 C)
Relative Humidity: 62%
Pressure (altimeter): 29.80 in. Hg (1009 hPa)
ob: DABB 301230Z 01012KT 9999 SCT040 SCT200 31/23 Q1009
cycle: 12

Station Type Date Time Source
DABB TAF 2022/06/30 12:34 UTC NOAA

TAF DABB 301100Z 3012/0112 02012KT 9999 FEW026 SCT090
TEMPO 3012/3020 FEW023CB BKN040 PROB30
TEMPO 3013/3018 26018G28KT 6000 -TSRA
BECMG 3022/3024 VRB02KT PROB40
TEMPO 0100/0106 2000 BR FEW010
BECMG 0110/0112 02008KT

Example: see airport list